Time;durP1;ratioP1;P1;durP2;ratioP2;P2;SDS_P1;SDS_P2;PMS_P1;PMS_P2;Temp;Humidity;BMP_temperature;BMP_pressure;BME280_temperature;BME280_humidity;BME280_pressure;Samples;Min_cycle;Max_cycle;Signal;HPM_P1;HPM_P2
2023/09/17 00:01:04;;;;;;;8.47;5.07;;;21.40;74.90;;;;;;5105330;28;20479;-81
2023/09/17 00:03:33;;;;;;;11.13;5.90;;;21.40;74.90;;;;;;5106647;28;20448;-81
2023/09/17 00:06:01;;;;;;;8.17;4.33;;;21.40;74.90;;;;;;5109169;27;20463;-81
2023/09/17 00:08:29;;;;;;;9.13;5.40;;;21.40;74.90;;;;;;5106355;28;20456;-81
2023/09/17 00:10:57;;;;;;;8.83;5.73;;;21.30;74.90;;;;;;5110768;28;20457;-80
2023/09/17 00:13:26;;;;;;;9.00;5.60;;;21.30;75.00;;;;;;5090629;28;20554;-81
2023/09/17 00:15:54;;;;;;;8.73;5.97;;;21.30;75.00;;;;;;5101044;28;20820;-82
2023/09/17 00:18:23;;;;;;;8.30;4.80;;;21.30;75.10;;;;;;5089797;28;20481;-80
2023/09/17 00:20:52;;;;;;;7.57;4.90;;;21.30;75.10;;;;;;5107258;28;20827;-80
2023/09/17 00:23:22;;;;;;;10.07;6.57;;;21.30;75.10;;;;;;5107283;28;20932;-80
2023/09/17 00:25:50;;;;;;;9.47;5.53;;;21.30;75.10;;;;;;5107232;28;20502;-80
2023/09/17 00:28:18;;;;;;;7.97;5.20;;;21.30;75.20;;;;;;5110137;28;20812;-80
2023/09/17 00:30:46;;;;;;;10.10;5.33;;;21.20;75.20;;;;;;5086093;28;20866;-81
2023/09/17 00:33:15;;;;;;;12.57;5.57;;;21.20;75.20;;;;;;5101639;28;20483;-81
2023/09/17 00:35:44;;;;;;;9.00;5.50;;;21.20;75.30;;;;;;5107037;28;20846;-80
2023/09/17 00:38:12;;;;;;;8.10;5.23;;;21.10;75.40;;;;;;5093950;28;20460;-80
2023/09/17 00:40:41;;;;;;;16.20;5.93;;;21.10;75.40;;;;;;5106298;28;20470;-80
2023/09/17 00:43:10;;;;;;;14.70;6.10;;;21.10;75.40;;;;;;5109315;28;20469;-79
2023/09/17 00:45:41;;;;;;;8.40;5.67;;;21.00;75.60;;;;;;5107124;28;20440;-79
2023/09/17 00:48:11;;;;;;;9.53;5.70;;;21.00;75.60;;;;;;5091626;28;21050;-79
2023/09/17 00:50:39;;;;;;;13.23;5.30;;;20.90;75.80;;;;;;5105887;28;20483;-81
2023/09/17 00:53:10;;;;;;;12.10;6.10;;;20.90;75.80;;;;;;5090829;28;20500;-81
2023/09/17 00:55:39;;;;;;;7.00;5.30;;;20.90;75.90;;;;;;5109212;28;20489;-80
2023/09/17 00:58:07;;;;;;;10.30;6.43;;;20.90;75.90;;;;;;5092207;28;20459;-80
2023/09/17 01:00:38;;;;;;;11.60;6.13;;;20.90;75.90;;;;;;5084338;28;21014;-80
2023/09/17 01:03:07;;;;;;;9.23;5.33;;;20.80;75.90;;;;;;5068154;28;20549;-81
2023/09/17 01:05:42;;;;;;;9.20;5.63;;;20.80;76.00;;;;;;5072293;28;20540;-81
2023/09/17 01:08:13;;;;;;;8.27;5.73;;;20.80;76.10;;;;;;5072719;28;20522;-80
2023/09/17 01:10:41;;;;;;;9.63;6.03;;;20.80;76.10;;;;;;5086563;28;20453;-80
2023/09/17 01:13:09;;;;;;;13.20;5.43;;;20.80;76.20;;;;;;5074966;28;20476;-81
2023/09/17 01:15:38;;;;;;;9.90;6.37;;;20.80;76.10;;;;;;5069596;28;20457;-81
2023/09/17 01:18:10;;;;;;;13.33;6.40;;;20.80;76.10;;;;;;5086132;28;20490;-79
2023/09/17 01:20:45;;;;;;;9.23;5.70;;;20.80;76.10;;;;;;5088666;28;20518;-79
2023/09/17 01:23:26;;;;;;;11.23;6.17;;;20.80;76.00;;;;;;5085169;28;20981;-81
2023/09/17 01:25:58;;;;;;;10.00;6.10;;;20.70;76.00;;;;;;5065072;28;20877;-81
2023/09/17 01:28:28;;;;;;;8.93;6.17;;;20.70;76.10;;;;;;5070708;28;20457;-80
2023/09/17 01:30:57;;;;;;;9.00;6.33;;;20.70;76.10;;;;;;5081026;28;20481;-80
2023/09/17 01:33:25;;;;;;;10.10;5.53;;;20.70;76.00;;;;;;5064283;28;20832;-80
2023/09/17 01:35:58;;;;;;;10.37;6.63;;;20.70;76.00;;;;;;5068536;28;20461;-80
2023/09/17 01:38:33;;;;;;;8.70;6.27;;;20.60;76.00;;;;;;5071004;28;20452;-80
2023/09/17 01:41:04;;;;;;;9.90;6.77;;;20.60;76.00;;;;;;5062252;28;20462;-81
2023/09/17 01:43:34;;;;;;;12.40;6.57;;;20.60;76.00;;;;;;5084873;28;20477;-81
2023/09/17 01:46:03;;;;;;;9.73;6.37;;;20.60;76.00;;;;;;5088455;28;20460;-81
2023/09/17 01:48:32;;;;;;;10.23;6.23;;;20.60;75.90;;;;;;5074779;28;20460;-81
2023/09/17 01:51:01;;;;;;;9.60;5.80;;;20.60;75.80;;;;;;5070859;28;20456;-80
2023/09/17 01:53:29;;;;;;;11.30;6.30;;;20.50;75.80;;;;;;5070452;28;20548;-80
2023/09/17 01:55:58;;;;;;;9.23;6.17;;;20.50;75.90;;;;;;5089023;28;20437;-80
2023/09/17 01:58:27;;;;;;;8.20;5.90;;;20.50;75.90;;;;;;5071454;28;20480;-80
2023/09/17 02:00:57;;;;;;;10.73;6.30;;;20.50;75.90;;;;;;5088929;28;20479;-80
2023/09/17 02:03:25;;;;;;;10.70;6.40;;;20.40;76.00;;;;;;5088561;28;20461;-81
2023/09/17 02:05:53;;;;;;;9.07;6.70;;;20.40;76.00;;;;;;5068342;28;20457;-81
2023/09/17 02:08:21;;;;;;;9.10;5.67;;;20.40;76.10;;;;;;5089801;28;20543;-81
2023/09/17 02:10:49;;;;;;;10.80;5.50;;;20.40;76.10;;;;;;5088561;28;20456;-81
2023/09/17 02:13:17;;;;;;;8.23;5.50;;;20.40;76.10;;;;;;5086014;28;20995;-81
2023/09/17 02:15:50;;;;;;;8.70;6.40;;;20.40;76.10;;;;;;5097658;28;20464;-81
2023/09/17 02:18:19;;;;;;;13.07;6.50;;;20.40;76.20;;;;;;5071182;28;20460;-81
2023/09/17 02:20:48;;;;;;;15.87;5.60;;;20.30;76.10;;;;;;5070860;28;20480;-81
2023/09/17 02:23:17;;;;;;;9.13;6.20;;;20.30;76.10;;;;;;5102932;28;20916;-81
2023/09/17 02:25:45;;;;;;;10.30;6.57;;;20.30;76.10;;;;;;5090089;28;20484;-80
2023/09/17 02:28:14;;;;;;;10.70;6.93;;;20.20;76.10;;;;;;5089129;28;20452;-80
2023/09/17 02:30:42;;;;;;;9.23;5.93;;;20.20;76.20;;;;;;5073266;28;20487;-80
2023/09/17 02:33:10;;;;;;;13.43;6.43;;;20.20;76.30;;;;;;5077655;28;20462;-80
2023/09/17 02:35:40;;;;;;;12.23;5.97;;;20.20;76.40;;;;;;5087220;28;20459;-80
2023/09/17 02:38:08;;;;;;;12.07;6.33;;;20.20;76.40;;;;;;5071498;28;20540;-80
2023/09/17 02:40:36;;;;;;;11.20;7.00;;;20.20;76.40;;;;;;5072691;28;20441;-80
2023/09/17 02:43:04;;;;;;;11.00;6.80;;;20.10;76.40;;;;;;5073224;28;20465;-80
2023/09/17 02:45:32;;;;;;;9.70;6.37;;;20.10;76.40;;;;;;5083401;28;20543;-80
2023/09/17 02:48:00;;;;;;;9.13;6.20;;;20.20;76.50;;;;;;5070708;28;20479;-81
2023/09/17 02:50:28;;;;;;;9.07;6.70;;;20.20;76.50;;;;;;5091386;28;20935;-81
2023/09/17 02:52:58;;;;;;;12.20;7.23;;;20.10;76.50;;;;;;5085110;28;20544;-80
2023/09/17 02:55:26;;;;;;;9.03;5.90;;;20.20;76.50;;;;;;5090504;28;20460;-81
2023/09/17 02:57:54;;;;;;;9.57;5.87;;;20.10;76.50;;;;;;5072759;28;20463;-81
2023/09/17 03:00:22;;;;;;;8.70;5.73;;;20.10;76.60;;;;;;5086447;28;20977;-80
2023/09/17 03:02:54;;;;;;;8.80;6.10;;;20.20;76.70;;;;;;5069190;28;20468;-80
2023/09/17 03:05:22;;;;;;;8.77;6.30;;;20.20;76.70;;;;;;5088001;28;20807;-80
2023/09/17 03:07:53;;;;;;;12.07;6.00;;;20.20;76.70;;;;;;5079886;28;20532;-79
2023/09/17 03:10:24;;;;;;;9.50;6.37;;;20.20;76.60;;;;;;5074584;28;20460;-81
2023/09/17 03:12:54;;;;;;;9.10;5.93;;;20.20;76.60;;;;;;5089355;28;20458;-80
2023/09/17 03:15:22;;;;;;;9.40;6.87;;;20.10;76.60;;;;;;5069673;28;20457;-80
2023/09/17 03:17:50;;;;;;;9.77;6.10;;;20.10;76.60;;;;;;5070081;28;20461;-80
2023/09/17 03:20:22;;;;;;;7.63;5.80;;;20.00;76.60;;;;;;5069539;28;20461;-81
2023/09/17 03:22:50;;;;;;;9.40;5.97;;;20.00;76.60;;;;;;5068540;28;21382;-81
2023/09/17 03:25:19;;;;;;;9.50;5.57;;;20.00;76.60;;;;;;5069194;28;20458;-80
2023/09/17 03:27:50;;;;;;;10.23;6.70;;;20.00;76.60;;;;;;5085919;28;20549;-80
2023/09/17 03:30:18;;;;;;;11.33;6.90;;;19.90;76.70;;;;;;5089040;28;20545;-81
2023/09/17 03:32:47;;;;;;;9.53;6.50;;;19.90;76.70;;;;;;5086178;28;20858;-80
2023/09/17 03:35:33;;;;;;;8.87;5.90;;;19.90;76.80;;;;;;5102206;28;20461;-80
2023/09/17 03:38:02;;;;;;;10.63;6.47;;;19.90;76.80;;;;;;5106109;28;20973;-80
2023/09/17 03:40:31;;;;;;;13.33;6.80;;;19.90;76.90;;;;;;5088243;28;20533;-80
2023/09/17 03:43:01;;;;;;;9.40;6.20;;;19.90;76.90;;;;;;5104851;28;20469;-80
2023/09/17 03:45:29;;;;;;;10.57;7.30;;;19.90;77.00;;;;;;5087936;28;20457;-80
2023/09/17 03:47:57;;;;;;;8.70;5.80;;;19.90;77.10;;;;;;5089257;28;20842;-81
2023/09/17 03:50:25;;;;;;;10.40;6.97;;;19.90;77.10;;;;;;5090351;28;20468;-80
2023/09/17 03:52:55;;;;;;;8.93;6.00;;;19.90;77.00;;;;;;5083161;28;20473;-80
2023/09/17 03:55:24;;;;;;;7.97;5.70;;;19.90;77.00;;;;;;5086729;28;20484;-79
2023/09/17 03:57:54;;;;;;;10.30;6.37;;;19.90;77.10;;;;;;5089197;28;21286;-79
2023/09/17 04:00:25;;;;;;;10.47;6.60;;;19.90;77.20;;;;;;5084689;28;20456;-81
2023/09/17 04:02:54;;;;;;;10.33;6.13;;;19.90;77.20;;;;;;5089810;28;20559;-80
2023/09/17 04:05:24;;;;;;;8.93;6.03;;;19.90;77.20;;;;;;5086251;28;20488;-81
2023/09/17 04:07:52;;;;;;;9.90;6.10;;;19.80;77.30;;;;;;5089829;28;20468;-81
2023/09/17 04:10:20;;;;;;;10.07;6.40;;;19.90;77.30;;;;;;5084578;28;20453;-82
2023/09/17 04:12:49;;;;;;;9.30;6.50;;;19.90;77.40;;;;;;5088682;28;20456;-81
2023/09/17 04:15:20;;;;;;;10.13;6.30;;;19.90;77.30;;;;;;5084813;28;20465;-80
2023/09/17 04:17:51;;;;;;;10.43;6.77;;;19.90;77.30;;;;;;5088527;28;20536;-80
2023/09/17 04:20:21;;;;;;;10.27;6.90;;;19.80;77.30;;;;;;5088577;28;20457;-80
2023/09/17 04:22:50;;;;;;;11.47;6.87;;;19.80;77.30;;;;;;5087854;28;20491;-80
2023/09/17 04:25:20;;;;;;;10.53;6.60;;;19.80;77.30;;;;;;5084829;28;20465;-80
2023/09/17 04:27:52;;;;;;;12.17;6.37;;;19.80;77.30;;;;;;5087210;28;20881;-81
2023/09/17 04:30:22;;;;;;;11.73;7.70;;;19.70;77.30;;;;;;5085810;28;20488;-81
2023/09/17 04:32:54;;;;;;;8.67;6.03;;;19.70;77.40;;;;;;5097247;28;20503;-80
2023/09/17 04:35:23;;;;;;;8.50;6.40;;;19.70;77.50;;;;;;5098002;28;20511;-81
2023/09/17 04:37:51;;;;;;;9.73;6.23;;;19.80;77.50;;;;;;5088939;28;21221;-81
2023/09/17 04:40:28;;;;;;;12.87;6.83;;;19.80;77.40;;;;;;5089640;28;21051;-80
2023/09/17 04:42:59;;;;;;;10.10;6.30;;;19.80;77.40;;;;;;5089898;28;20536;-81
2023/09/17 04:45:36;;;;;;;9.20;6.10;;;19.70;77.40;;;;;;5088314;28;20488;-80
2023/09/17 04:48:31;;;;;;;9.53;6.23;;;19.70;77.30;;;;;;5104066;28;20539;-80
2023/09/17 04:50:59;;;;;;;11.13;6.63;;;19.70;77.30;;;;;;5087568;28;20461;-80
2023/09/17 04:53:27;;;;;;;10.43;6.47;;;19.60;77.30;;;;;;5086504;28;20898;-80
2023/09/17 04:55:55;;;;;;;13.40;7.13;;;19.60;77.30;;;;;;5083848;28;20480;-80
2023/09/17 04:58:30;;;;;;;10.23;6.73;;;19.60;77.30;;;;;;5088066;28;20448;-80
2023/09/17 05:01:01;;;;;;;9.60;6.40;;;19.50;77.40;;;;;;5099650;28;20504;-80
2023/09/17 05:03:32;;;;;;;10.50;6.80;;;19.50;77.30;;;;;;5068956;28;20463;-80
2023/09/17 05:06:00;;;;;;;9.10;6.57;;;19.50;77.30;;;;;;5069767;28;20460;-80
2023/09/17 05:08:28;;;;;;;9.43;5.67;;;19.50;77.30;;;;;;5080481;28;20470;-81
2023/09/17 05:10:57;;;;;;;12.30;7.10;;;19.50;77.30;;;;;;5083023;28;20486;-80
2023/09/17 05:13:26;;;;;;;9.90;6.63;;;19.50;77.30;;;;;;5083147;28;20468;-80
2023/09/17 05:15:54;;;;;;;9.73;5.90;;;19.40;77.20;;;;;;5087933;28;20468;-80
2023/09/17 05:18:22;;;;;;;11.47;6.77;;;19.40;77.20;;;;;;5071336;28;20465;-81
2023/09/17 05:20:53;;;;;;;10.00;6.97;;;19.40;77.30;;;;;;5077453;28;20869;-81
2023/09/17 05:23:24;;;;;;;10.33;6.40;;;19.40;77.40;;;;;;5079487;28;20446;-80
2023/09/17 05:25:58;;;;;;;10.50;7.47;;;19.40;77.40;;;;;;5073447;28;20996;-80
2023/09/17 05:28:28;;;;;;;8.73;5.73;;;19.40;77.40;;;;;;5065021;28;21073;-83
2023/09/17 05:30:57;;;;;;;9.53;6.50;;;19.40;77.40;;;;;;5069286;28;20480;-81
2023/09/17 05:33:26;;;;;;;9.93;6.63;;;19.50;77.40;;;;;;5068524;28;20457;-82
2023/09/17 05:35:57;;;;;;;11.67;6.20;;;19.50;77.40;;;;;;5069558;28;20469;-81
2023/09/17 05:38:28;;;;;;;9.63;6.43;;;19.50;77.40;;;;;;5069713;28;20493;-81
2023/09/17 05:40:56;;;;;;;10.93;6.90;;;19.50;77.40;;;;;;5070186;28;20465;-80
2023/09/17 05:43:25;;;;;;;10.83;7.03;;;19.50;77.50;;;;;;5086405;28;20473;-81
2023/09/17 05:45:56;;;;;;;8.70;6.50;;;19.50;77.60;;;;;;5100709;28;20532;-81
2023/09/17 05:48:34;;;;;;;8.93;5.87;;;19.50;77.60;;;;;;5098213;28;20467;-81
2023/09/17 05:51:07;;;;;;;11.10;6.97;;;19.50;77.70;;;;;;5086843;28;20986;-81
2023/09/17 05:53:36;;;;;;;9.90;6.30;;;19.60;77.70;;;;;;5099487;28;20545;-81
2023/09/17 05:56:07;;;;;;;9.17;6.57;;;19.60;77.70;;;;;;5069184;28;20518;-81
2023/09/17 05:58:35;;;;;;;12.13;7.40;;;19.60;77.70;;;;;;5065634;28;20450;-81
2023/09/17 06:01:06;;;;;;;9.83;6.93;;;19.60;77.70;;;;;;5095600;28;20923;-79
2023/09/17 06:03:36;;;;;;;10.13;7.70;;;19.60;77.70;;;;;;5065411;28;20465;-81
2023/09/17 06:06:05;;;;;;;10.13;6.47;;;19.60;77.70;;;;;;5084371;28;20544;-80
2023/09/17 06:08:33;;;;;;;10.40;7.00;;;19.60;77.80;;;;;;5069180;28;20540;-80
2023/09/17 06:11:02;;;;;;;13.30;7.17;;;19.70;77.80;;;;;;5067342;28;20511;-80
2023/09/17 06:13:30;;;;;;;11.50;7.63;;;19.70;77.80;;;;;;5089115;28;20461;-79
2023/09/17 06:15:58;;;;;;;10.20;6.90;;;19.70;77.80;;;;;;5069394;28;20483;-80
2023/09/17 06:18:28;;;;;;;10.83;6.83;;;19.70;77.70;;;;;;5070099;28;20467;-80
2023/09/17 06:20:57;;;;;;;9.50;6.93;;;19.70;77.80;;;;;;5065405;28;20530;-79
2023/09/17 06:23:27;;;;;;;10.77;7.60;;;19.80;77.90;;;;;;5070182;28;20460;-79
2023/09/17 06:25:56;;;;;;;10.47;6.47;;;19.80;78.00;;;;;;5098917;28;20451;-80
2023/09/17 06:28:24;;;;;;;17.33;6.73;;;19.80;78.10;;;;;;5069983;28;20464;-80
2023/09/17 06:30:52;;;;;;;11.17;8.20;;;19.90;78.20;;;;;;5076926;28;20484;-81
2023/09/17 06:33:20;;;;;;;12.63;7.70;;;19.90;78.20;;;;;;5089210;28;20465;-81
2023/09/17 06:35:48;;;;;;;9.97;7.30;;;19.90;78.30;;;;;;5093909;28;20459;-80
2023/09/17 06:38:16;;;;;;;12.77;8.40;;;20.00;78.30;;;;;;5108665;28;20451;-81
2023/09/17 06:40:46;;;;;;;11.67;7.70;;;20.00;78.40;;;;;;5094772;28;20601;-80
2023/09/17 06:43:15;;;;;;;10.00;7.60;;;20.00;78.40;;;;;;5110247;28;20457;-80
2023/09/17 06:45:43;;;;;;;13.60;7.23;;;20.10;78.40;;;;;;5120390;27;20488;-80
2023/09/17 06:48:11;;;;;;;11.60;8.47;;;20.10;78.50;;;;;;5090882;28;20478;-81
2023/09/17 06:50:39;;;;;;;9.93;7.80;;;20.10;78.50;;;;;;5090630;28;20950;-81
2023/09/17 06:53:07;;;;;;;10.37;7.20;;;20.20;78.50;;;;;;5092348;28;20487;-82
2023/09/17 06:55:35;;;;;;;15.27;8.10;;;20.20;78.60;;;;;;5086769;28;20951;-80
2023/09/17 06:58:05;;;;;;;13.30;8.20;;;20.20;78.60;;;;;;5093912;28;20467;-80
2023/09/17 07:00:33;;;;;;;11.20;7.50;;;20.20;78.50;;;;;;5101378;28;20483;-80
2023/09/17 07:03:01;;;;;;;11.63;7.80;;;20.30;78.60;;;;;;5084377;28;20476;-82
2023/09/17 07:05:29;;;;;;;10.03;7.30;;;20.30;78.50;;;;;;5089095;28;20460;-80
2023/09/17 07:07:57;;;;;;;9.40;6.70;;;20.40;78.50;;;;;;5092142;28;20517;-81
2023/09/17 07:10:25;;;;;;;12.50;7.33;;;20.40;78.30;;;;;;5090556;28;20449;-80
2023/09/17 07:12:53;;;;;;;9.50;7.20;;;20.50;78.30;;;;;;5089046;28;20778;-81
2023/09/17 07:15:25;;;;;;;12.03;8.00;;;20.50;78.30;;;;;;5087352;28;20471;-81
2023/09/17 07:17:54;;;;;;;9.33;7.00;;;20.60;78.30;;;;;;5086957;28;20461;-79
2023/09/17 07:20:23;;;;;;;11.90;7.23;;;20.60;78.30;;;;;;5084144;28;20450;-79
2023/09/17 07:22:51;;;;;;;10.87;7.27;;;20.60;78.30;;;;;;5088668;28;20555;-80
2023/09/17 07:25:20;;;;;;;9.40;7.30;;;20.60;78.30;;;;;;5087494;28;20541;-80
2023/09/17 07:27:49;;;;;;;13.33;8.00;;;20.70;78.20;;;;;;5087532;28;20471;-80
2023/09/17 07:30:18;;;;;;;9.23;6.70;;;20.70;78.20;;;;;;5085058;28;20469;-80
2023/09/17 07:32:47;;;;;;;9.73;6.97;;;20.80;78.30;;;;;;5101788;28;20811;-80
2023/09/17 07:35:16;;;;;;;10.40;7.90;;;20.80;78.20;;;;;;5084039;28;20802;-80
2023/09/17 07:37:44;;;;;;;10.83;7.40;;;20.80;78.20;;;;;;5087729;28;20433;-79
2023/09/17 07:40:18;;;;;;;9.77;7.10;;;20.90;78.10;;;;;;5086478;28;20545;-80
2023/09/17 07:42:46;;;;;;;11.23;7.60;;;20.90;78.10;;;;;;5089369;28;20507;-81
2023/09/17 07:45:14;;;;;;;12.17;8.20;;;20.90;78.10;;;;;;5103301;27;20456;-80
2023/09/17 07:47:42;;;;;;;13.63;8.33;;;21.00;78.00;;;;;;5083830;28;20483;-81
2023/09/17 07:50:13;;;;;;;11.00;7.97;;;21.00;78.10;;;;;;5086997;28;20454;-79
2023/09/17 07:52:41;;;;;;;11.30;7.73;;;21.10;78.10;;;;;;5087108;28;20553;-81
2023/09/17 07:55:10;;;;;;;11.90;7.87;;;21.10;78.00;;;;;;5084564;28;20928;-79
2023/09/17 07:57:38;;;;;;;10.40;7.90;;;21.20;78.00;;;;;;5090284;28;20555;-81
2023/09/17 08:00:09;;;;;;;12.67;8.30;;;21.20;78.00;;;;;;5087785;28;20966;-81
2023/09/17 08:02:42;;;;;;;11.70;7.73;;;21.20;77.90;;;;;;5083332;28;20561;-81
2023/09/17 08:05:10;;;;;;;12.50;7.40;;;21.30;77.90;;;;;;5086317;28;20463;-80
2023/09/17 08:07:41;;;;;;;12.10;8.67;;;21.30;77.90;;;;;;5085116;28;20947;-81
2023/09/17 08:10:10;;;;;;;12.90;7.37;;;21.40;78.00;;;;;;5090050;28;20537;-81
2023/09/17 08:12:38;;;;;;;14.33;8.10;;;21.40;78.00;;;;;;5087907;28;20495;-82
2023/09/17 08:15:08;;;;;;;11.17;8.53;;;21.50;78.10;;;;;;5084614;28;20473;-81
2023/09/17 08:17:36;;;;;;;10.50;8.17;;;21.50;78.10;;;;;;5086852;28;20807;-80
2023/09/17 08:20:07;;;;;;;11.93;8.17;;;21.60;78.10;;;;;;5087129;28;20440;-81
2023/09/17 08:22:35;;;;;;;11.37;8.07;;;21.60;78.00;;;;;;5087633;28;20445;-81
2023/09/17 08:25:06;;;;;;;11.67;7.67;;;21.70;77.90;;;;;;5087638;28;20454;-81
2023/09/17 08:27:34;;;;;;;12.70;7.47;;;21.80;78.00;;;;;;5088197;28;20459;-80
2023/09/17 08:30:03;;;;;;;11.57;7.93;;;21.80;78.00;;;;;;5104521;28;20460;-80
2023/09/17 08:32:31;;;;;;;11.93;8.10;;;21.80;78.00;;;;;;5088000;28;21214;-81
2023/09/17 08:34:59;;;;;;;10.17;7.80;;;21.90;78.00;;;;;;5089374;28;20802;-83
2023/09/17 08:37:27;;;;;;;10.73;7.73;;;21.90;77.90;;;;;;5083367;28;20469;-81
2023/09/17 08:39:58;;;;;;;9.90;7.63;;;22.00;77.90;;;;;;5073334;28;20449;-81
2023/09/17 08:42:28;;;;;;;12.13;7.40;;;22.00;77.90;;;;;;5093636;28;20541;-81
2023/09/17 08:44:57;;;;;;;11.77;8.40;;;22.10;77.90;;;;;;5082327;28;20461;-82
2023/09/17 08:47:26;;;;;;;10.70;8.20;;;22.10;77.90;;;;;;5089112;28;20449;-80
2023/09/17 08:49:55;;;;;;;9.30;7.33;;;22.20;77.80;;;;;;5092101;28;20510;-82
2023/09/17 08:52:26;;;;;;;10.40;8.37;;;22.30;77.70;;;;;;5090691;28;20488;-80
2023/09/17 08:54:55;;;;;;;11.27;7.90;;;22.30;77.50;;;;;;5095113;28;20460;-80
2023/09/17 08:57:24;;;;;;;11.10;8.70;;;22.40;77.50;;;;;;5088955;28;20487;-80
2023/09/17 09:00:03;;;;;;;10.80;8.27;;;22.50;77.50;;;;;;5089480;28;20459;-81
2023/09/17 09:02:33;;;;;;;12.50;7.50;;;22.50;77.40;;;;;;5106027;28;20495;-80
2023/09/17 09:05:03;;;;;;;11.10;7.90;;;22.60;77.40;;;;;;5106127;28;20451;-80
2023/09/17 09:07:32;;;;;;;9.27;6.93;;;22.60;77.30;;;;;;5104548;28;21149;-81
2023/09/17 09:10:00;;;;;;;10.90;6.80;;;22.70;77.10;;;;;;5109413;28;21252;-79
2023/09/17 09:12:29;;;;;;;9.53;6.87;;;22.70;77.00;;;;;;5108590;28;20478;-81
2023/09/17 09:15:00;;;;;;;10.17;6.50;;;22.80;76.90;;;;;;5108425;28;20455;-80
2023/09/17 09:17:28;;;;;;;11.00;7.10;;;22.90;76.70;;;;;;5109147;28;20562;-81
2023/09/17 09:19:56;;;;;;;10.10;6.67;;;22.90;76.60;;;;;;5107170;28;20550;-81
2023/09/17 09:22:25;;;;;;;11.03;6.60;;;22.90;76.40;;;;;;5108670;28;20467;-80
2023/09/17 09:24:53;;;;;;;9.17;6.50;;;23.00;76.20;;;;;;5090867;28;20481;-82
2023/09/17 09:27:21;;;;;;;10.30;6.87;;;23.00;76.20;;;;;;5109057;28;20535;-80
2023/09/17 09:29:49;;;;;;;10.90;6.97;;;23.00;76.10;;;;;;5102352;28;20467;-80
2023/09/17 09:32:19;;;;;;;10.10;6.43;;;23.10;76.10;;;;;;5106593;28;20471;-82
2023/09/17 09:34:52;;;;;;;10.13;6.30;;;23.20;75.90;;;;;;5108755;28;20462;-80
2023/09/17 09:37:22;;;;;;;10.23;6.20;;;23.20;75.70;;;;;;5108617;28;20483;-81
2023/09/17 09:39:51;;;;;;;9.80;6.00;;;23.30;75.60;;;;;;5106360;28;20541;-83
2023/09/17 09:42:19;;;;;;;11.20;6.80;;;23.30;75.50;;;;;;5086561;28;20542;-81
2023/09/17 09:44:47;;;;;;;7.90;5.83;;;23.40;75.40;;;;;;5107938;28;20466;-80
2023/09/17 09:47:15;;;;;;;16.13;6.10;;;23.50;75.20;;;;;;5102136;28;20542;-80
2023/09/17 09:49:45;;;;;;;8.80;5.30;;;23.50;75.00;;;;;;5102386;28;20965;-78
2023/09/17 09:52:14;;;;;;;12.30;6.30;;;23.60;74.80;;;;;;5104396;28;20539;-78
2023/09/17 09:54:43;;;;;;;12.50;6.30;;;23.60;74.70;;;;;;5105629;28;20444;-78
2023/09/17 09:57:12;;;;;;;14.57;6.83;;;23.60;74.60;;;;;;5104470;28;20483;-79
2023/09/17 09:59:44;;;;;;;9.37;6.87;;;23.70;74.50;;;;;;5106176;28;20462;-78
2023/09/17 10:02:13;;;;;;;9.90;6.17;;;23.70;74.40;;;;;;5103629;28;20479;-78
2023/09/17 10:04:43;;;;;;;12.33;6.50;;;23.80;74.40;;;;;;5102779;28;20463;-78
2023/09/17 10:07:13;;;;;;;9.70;6.00;;;23.80;74.40;;;;;;5097000;28;20447;-78
2023/09/17 10:09:42;;;;;;;15.30;6.50;;;23.90;74.30;;;;;;5109951;28;20452;-78
2023/09/17 10:12:10;;;;;;;9.93;5.80;;;24.00;74.30;;;;;;5110444;28;20459;-77
2023/09/17 10:14:38;;;;;;;8.93;6.50;;;24.00;74.10;;;;;;5107515;28;21125;-78
2023/09/17 10:17:07;;;;;;;10.80;7.17;;;24.00;74.00;;;;;;5091070;28;20475;-78
2023/09/17 10:19:36;;;;;;;9.87;6.40;;;24.10;74.10;;;;;;5106601;28;21177;-77
2023/09/17 10:22:07;;;;;;;9.73;6.13;;;24.20;74.00;;;;;;5109704;28;20458;-77
2023/09/17 10:24:39;;;;;;;8.80;4.90;;;24.20;73.70;;;;;;5108444;28;20539;-78
2023/09/17 10:27:08;;;;;;;9.90;6.33;;;24.30;73.50;;;;;;5109665;28;20451;-78
2023/09/17 10:29:38;;;;;;;10.40;5.57;;;24.30;73.50;;;;;;5110039;28;20491;-76
2023/09/17 10:32:07;;;;;;;9.67;5.20;;;24.40;73.50;;;;;;5110081;28;20559;-78
2023/09/17 10:34:36;;;;;;;10.33;4.90;;;24.40;73.20;;;;;;5108625;28;20549;-79
2023/09/17 10:37:05;;;;;;;9.03;5.47;;;24.50;73.00;;;;;;5110460;28;20531;-77
2023/09/17 10:39:34;;;;;;;11.70;5.03;;;24.60;72.90;;;;;;5109856;28;20966;-77
2023/09/17 10:42:03;;;;;;;8.00;5.00;;;24.70;72.80;;;;;;5088985;28;20464;-76
2023/09/17 10:44:36;;;;;;;10.10;5.10;;;24.80;72.40;;;;;;5107801;28;20456;-77
2023/09/17 10:47:10;;;;;;;11.40;5.10;;;24.90;72.20;;;;;;5088650;28;20448;-77
2023/09/17 10:49:40;;;;;;;11.90;4.70;;;25.00;72.00;;;;;;5110969;28;20561;-77
2023/09/17 10:52:08;;;;;;;7.93;4.90;;;25.00;71.90;;;;;;5109943;28;20940;-77
2023/09/17 10:54:36;;;;;;;12.00;4.50;;;25.10;71.70;;;;;;5106532;27;20462;-76
2023/09/17 10:57:10;;;;;;;10.60;4.00;;;25.10;71.50;;;;;;5109495;28;20460;-78
2023/09/17 10:59:39;;;;;;;8.70;3.97;;;25.20;71.00;;;;;;5105881;28;20493;-77
2023/09/17 11:02:08;;;;;;;9.27;3.70;;;25.30;70.70;;;;;;5109551;28;21201;-76
2023/09/17 11:04:37;;;;;;;11.93;4.97;;;25.40;70.40;;;;;;5107045;28;20463;-77
2023/09/17 11:07:07;;;;;;;10.03;3.90;;;25.50;70.10;;;;;;5107234;28;20451;-77
2023/09/17 11:09:36;;;;;;;9.20;3.90;;;25.50;69.80;;;;;;5107810;28;20910;-76
2023/09/17 11:12:08;;;;;;;10.20;4.23;;;25.60;69.60;;;;;;5108356;27;20456;-77
2023/09/17 11:14:36;;;;;;;11.60;4.33;;;25.60;69.30;;;;;;5106702;28;20460;-77
2023/09/17 11:17:04;;;;;;;11.30;4.40;;;25.70;69.10;;;;;;5109181;28;20455;-80
2023/09/17 11:19:32;;;;;;;10.10;3.90;;;25.70;68.90;;;;;;5108216;28;20537;-78
2023/09/17 11:22:13;;;;;;;8.53;4.00;;;25.80;68.70;;;;;;5107882;28;20448;-75
2023/09/17 11:24:45;;;;;;;9.40;4.17;;;25.80;68.40;;;;;;5103615;28;21210;-77
2023/09/17 11:27:19;;;;;;;8.03;4.07;;;25.80;68.30;;;;;;5106550;28;20507;-77
2023/09/17 11:29:47;;;;;;;9.40;3.90;;;25.80;68.30;;;;;;5109131;28;20942;-77
2023/09/17 11:32:22;;;;;;;10.70;4.33;;;25.80;68.00;;;;;;5109137;28;20476;-76
2023/09/17 11:34:51;;;;;;;8.27;3.33;;;25.90;67.90;;;;;;5106606;28;20509;-76
2023/09/17 11:37:20;;;;;;;27.33;4.60;;;25.90;67.50;;;;;;5105700;28;20460;-76
2023/09/17 11:39:52;;;;;;;10.40;4.00;;;26.00;67.10;;;;;;5108946;28;20582;-76
2023/09/17 11:42:24;;;;;;;9.33;3.50;;;26.10;66.80;;;;;;5107671;28;20448;-76
2023/09/17 11:44:55;;;;;;;7.23;3.60;;;26.10;66.60;;;;;;5103320;28;20466;-77
2023/09/17 11:47:23;;;;;;;10.67;3.10;;;26.10;66.50;;;;;;5104492;28;20467;-76
2023/09/17 11:49:51;;;;;;;11.33;4.20;;;26.10;66.10;;;;;;5105108;28;20448;-76
2023/09/17 11:52:19;;;;;;;7.00;3.30;;;26.10;65.90;;;;;;5108064;28;20488;-76
2023/09/17 11:54:50;;;;;;;7.40;2.93;;;26.10;65.90;;;;;;5107851;28;20474;-76
2023/09/17 11:57:24;;;;;;;9.40;3.10;;;26.10;65.60;;;;;;5105079;28;20494;-76
2023/09/17 11:59:52;;;;;;;6.93;3.00;;;26.20;65.50;;;;;;5106615;28;20827;-77
2023/09/17 12:02:20;;;;;;;16.40;3.83;;;26.20;65.40;;;;;;5105201;28;20509;-77
2023/09/17 12:04:51;;;;;;;8.07;3.27;;;26.20;65.40;;;;;;5105634;28;20456;-78
2023/09/17 12:07:19;;;;;;;11.10;4.27;;;26.20;65.50;;;;;;5103738;28;20455;-77
2023/09/17 12:09:56;;;;;;;8.80;3.73;;;26.30;65.60;;;;;;5108413;28;20444;-76
2023/09/17 12:12:26;;;;;;;8.87;4.13;;;26.30;65.40;;;;;;5106168;28;20498;-76
2023/09/17 12:14:56;;;;;;;13.63;4.60;;;26.30;65.20;;;;;;5091660;28;21343;-76
2023/09/17 12:17:26;;;;;;;11.03;3.60;;;26.30;65.40;;;;;;5105759;28;20466;-77
2023/09/17 12:20:09;;;;;;;12.73;3.93;;;26.30;65.20;;;;;;5105581;28;20550;-76
2023/09/17 12:22:37;;;;;;;10.00;4.07;;;26.40;65.00;;;;;;5107088;28;20525;-77
2023/09/17 12:25:14;;;;;;;9.20;4.43;;;26.40;65.00;;;;;;5104703;28;20812;-77
2023/09/17 12:27:48;;;;;;;13.97;4.50;;;26.50;64.90;;;;;;5108819;28;20958;-76
2023/09/17 12:30:16;;;;;;;9.00;3.37;;;26.50;64.90;;;;;;5108074;28;20483;-77
2023/09/17 12:32:44;;;;;;;10.33;3.63;;;26.50;64.70;;;;;;5106023;28;20448;-76
2023/09/17 12:35:13;;;;;;;11.03;3.40;;;26.60;64.60;;;;;;5107405;28;20475;-76
2023/09/17 12:37:42;;;;;;;9.20;4.03;;;26.60;64.50;;;;;;5106186;28;20930;-76
2023/09/17 12:40:12;;;;;;;9.97;3.80;;;26.60;64.50;;;;;;5107326;28;20567;-78
2023/09/17 12:42:41;;;;;;;10.67;3.53;;;26.60;64.60;;;;;;5088084;28;20472;-76
2023/09/17 12:45:10;;;;;;;7.73;3.30;;;26.60;64.60;;;;;;5102081;28;20518;-77
2023/09/17 12:47:40;;;;;;;11.10;3.50;;;26.70;64.40;;;;;;5104104;28;20456;-76
2023/09/17 12:50:09;;;;;;;6.50;3.17;;;26.70;64.30;;;;;;5106101;28;20447;-76
2023/09/17 12:52:37;;;;;;;12.17;3.97;;;26.70;64.10;;;;;;5107550;28;20546;-77